createdAt,value
2019-01-25T00:02:01.927Z,62.14
2019-01-25T00:07:04.389Z,61.92
2019-01-25T00:12:06.877Z,61.50
2019-01-25T00:17:09.405Z,61.47
2019-01-25T00:22:11.789Z,61.17
2019-01-25T00:27:14.250Z,61.17
2019-01-25T00:32:16.711Z,60.73
2019-01-25T00:37:19.178Z,60.39
2019-01-25T00:42:21.636Z,60.21
2019-01-25T00:47:24.097Z,60.31
2019-01-25T00:52:26.556Z,60.07
2019-01-25T00:57:29.014Z,59.86
2019-01-25T01:02:31.476Z,59.98
2019-01-25T01:07:33.930Z,59.74
2019-01-25T01:12:36.375Z,59.50
2019-01-25T01:17:38.838Z,59.45
2019-01-25T01:22:41.321Z,59.77
2019-01-25T01:27:43.870Z,59.98
2019-01-25T01:32:46.343Z,60.08
2019-01-25T01:37:48.801Z,60.53
2019-01-25T01:42:51.253Z,60.89
2019-01-25T01:47:53.709Z,61.15
2019-01-25T01:52:56.186Z,61.20
2019-01-25T01:57:58.648Z,61.03
2019-01-25T02:03:01.114Z,60.90
2019-01-25T02:08:03.576Z,61.13
2019-01-25T02:13:06.055Z,60.96
2019-01-25T02:18:08.512Z,61.13
2019-01-25T02:23:10.979Z,61.16
2019-01-25T02:28:13.444Z,60.73
2019-01-25T02:33:15.906Z,60.68
2019-01-25T02:38:18.368Z,60.59
2019-01-25T02:43:20.837Z,60.34
2019-01-25T02:48:23.302Z,60.30
2019-01-25T02:53:25.741Z,59.99
2019-01-25T02:58:28.190Z,60.07
2019-01-25T03:03:30.696Z,59.60
2019-01-25T03:08:33.149Z,59.46
2019-01-25T03:13:35.617Z,59.52
2019-01-25T03:18:38.071Z,59.48
2019-01-25T03:23:40.531Z,59.43
2019-01-25T03:28:42.990Z,59.23
2019-01-25T03:33:45.448Z,59.26
2019-01-25T03:38:47.913Z,59.40
2019-01-25T03:43:50.363Z,59.04
2019-01-25T03:48:52.830Z,59.44
2019-01-25T03:53:55.311Z,59.17
2019-01-25T03:58:57.772Z,59.58
2019-01-25T04:04:00.243Z,59.61
2019-01-25T04:09:02.707Z,59.39
2019-01-25T04:14:05.167Z,59.15
2019-01-25T04:19:07.639Z,59.21
2019-01-25T04:24:10.105Z,59.38
2019-01-25T04:29:12.563Z,59.42
2019-01-25T04:34:15.024Z,59.60
2019-01-25T04:39:17.482Z,59.69
2019-01-25T04:44:19.953Z,60.22
2019-01-25T04:49:22.414Z,60.41
2019-01-25T04:54:24.895Z,61.03
2019-01-25T04:59:27.360Z,61.06
2019-01-25T05:04:29.846Z,61.48
2019-01-25T05:09:32.317Z,62.39
2019-01-25T05:14:34.827Z,62.54
2019-01-25T05:19:40.248Z,63.52
2019-01-25T05:24:42.719Z,63.89
2019-01-25T05:29:48.144Z,64.28
2019-01-25T05:34:50.612Z,64.19
2019-01-25T05:39:53.084Z,64.95
2019-01-25T05:44:55.567Z,65.55
2019-01-25T05:49:58.027Z,65.64
2019-01-25T05:55:00.526Z,65.62
2019-01-25T06:00:03.001Z,65.56
2019-01-25T06:05:05.490Z,65.99
2019-01-25T06:10:07.980Z,66.17
2019-01-25T06:15:10.457Z,66.38
2019-01-25T06:20:12.915Z,66.74
2019-01-25T06:25:15.386Z,66.73
2019-01-25T06:30:17.858Z,66.85
2019-01-25T06:35:20.320Z,66.95
2019-01-25T06:40:22.794Z,66.73
2019-01-25T06:45:25.264Z,66.94
2019-01-25T06:50:27.716Z,66.95
2019-01-25T06:55:30.198Z,66.79
2019-01-25T07:00:50.818Z,66.80
2019-01-25T07:05:53.370Z,67.21
2019-01-25T07:10:55.841Z,67.16
2019-01-25T07:15:58.302Z,67.10
2019-01-25T07:21:00.786Z,67.32
2019-01-25T07:26:03.460Z,67.18
2019-01-25T07:31:05.951Z,67.30
2019-01-25T07:36:08.416Z,67.11
2019-01-25T07:41:10.905Z,67.02
2019-01-25T07:46:13.428Z,67.21
2019-01-25T07:51:15.880Z,67.06
2019-01-25T07:56:18.344Z,67.15
2019-01-25T08:01:20.801Z,67.04
2019-01-25T08:06:23.239Z,67.11
2019-01-25T08:11:25.705Z,67.12
2019-01-25T08:16:28.180Z,66.71
2019-01-25T08:21:30.624Z,66.68
2019-01-25T08:26:33.101Z,66.72
2019-01-25T08:31:35.553Z,66.65
2019-01-25T08:36:38.196Z,67.03
2019-01-25T08:41:40.512Z,66.85
2019-01-25T08:46:43.055Z,66.45
2019-01-25T08:51:45.518Z,66.37
2019-01-25T08:56:47.999Z,66.03
2019-01-25T09:01:50.463Z,65.82
2019-01-25T09:06:52.930Z,65.58
2019-01-25T09:11:55.394Z,65.35
2019-01-25T09:16:57.856Z,65.44
2019-01-25T09:22:00.349Z,65.24
2019-01-25T09:27:02.801Z,65.20
2019-01-25T09:32:05.283Z,65.47
2019-01-25T09:37:07.790Z,65.32
2019-01-25T09:42:10.261Z,64.68
2019-01-25T09:47:12.728Z,64.25
2019-01-25T09:52:15.220Z,63.76
2019-01-25T09:57:17.702Z,63.74
2019-01-25T10:02:20.190Z,63.35
2019-01-25T10:07:22.718Z,63.04
2019-01-25T10:12:25.208Z,62.38
2019-01-25T10:17:27.749Z,61.62
2019-01-25T10:22:30.244Z,61.35
2019-01-25T10:27:32.707Z,60.56
2019-01-25T10:32:35.174Z,60.27
2019-01-25T10:37:37.623Z,60.72
2019-01-25T10:42:45.496Z,60.96
2019-01-25T10:47:42.557Z,61.31
2019-01-25T10:52:45.015Z,60.00
2019-01-25T10:57:47.495Z,61.05
2019-01-25T11:02:57.633Z,60.38
2019-01-25T11:07:52.428Z,59.07
2019-01-25T11:13:00.731Z,58.09
2019-01-25T11:17:57.362Z,58.13
2019-01-25T11:22:59.813Z,59.04
2019-01-25T11:28:02.277Z,59.93
2019-01-25T11:33:04.772Z,60.48
2019-01-25T11:38:07.244Z,60.00
2019-01-25T11:43:09.723Z,60.29
2019-01-25T11:48:12.190Z,59.06
2019-01-25T11:53:14.660Z,57.83
2019-01-25T11:58:17.131Z,59.11
2019-01-25T12:03:19.609Z,59.49
2019-01-25T12:08:22.098Z,59.28
2019-01-25T12:13:24.562Z,58.93
2019-01-25T12:18:27.072Z,58.81
2019-01-25T12:23:29.504Z,58.84
2019-01-25T12:28:31.956Z,58.58
2019-01-25T12:33:34.404Z,58.17
2019-01-25T12:38:36.864Z,57.46
2019-01-25T12:43:39.321Z,57.19
2019-01-25T12:48:41.788Z,57.82
2019-01-25T12:53:44.273Z,57.98
2019-01-25T12:58:46.771Z,57.53
2019-01-25T13:03:49.238Z,57.14
2019-01-25T13:08:51.725Z,58.01
2019-01-25T13:13:54.173Z,57.98
2019-01-25T13:18:56.646Z,57.67
2019-01-25T13:23:59.125Z,57.21
2019-01-25T13:29:01.592Z,58.02
2019-01-25T13:34:04.095Z,58.30
2019-01-25T13:39:06.528Z,58.72
2019-01-25T13:44:08.983Z,59.01
2019-01-25T13:49:11.469Z,59.30
2019-01-25T13:54:13.934Z,58.98
2019-01-25T13:59:16.426Z,59.42
2019-01-25T14:04:18.877Z,59.66
2019-01-25T14:09:21.403Z,60.25
2019-01-25T14:14:23.876Z,60.80
2019-01-25T14:19:26.353Z,61.12
2019-01-25T14:24:28.876Z,61.29
2019-01-25T14:29:31.352Z,61.55
2019-01-25T14:34:33.827Z,62.01
2019-01-25T14:39:36.274Z,61.93
2019-01-25T14:44:38.747Z,62.02
2019-01-25T14:49:41.202Z,62.07
2019-01-25T14:54:43.675Z,62.39
2019-01-25T14:59:46.226Z,62.60
2019-01-25T15:04:48.696Z,62.86
2019-01-25T15:09:51.172Z,63.05
2019-01-25T15:14:53.709Z,63.20
2019-01-25T15:19:56.169Z,63.30
2019-01-25T15:24:58.629Z,63.43
2019-01-25T15:30:01.104Z,63.76
2019-01-25T15:35:03.609Z,63.85
2019-01-25T15:40:06.091Z,64.23
2019-01-25T15:45:11.513Z,64.25
2019-01-25T15:50:22.958Z,64.42
2019-01-25T15:55:25.413Z,64.47
2019-01-25T16:00:27.904Z,64.61
2019-01-25T16:05:30.366Z,64.71
2019-01-25T16:10:32.833Z,64.95
2019-01-25T16:15:35.303Z,65.03
2019-01-25T16:20:37.779Z,65.36
2019-01-25T16:25:40.259Z,65.29
2019-01-25T16:30:42.791Z,65.26
2019-01-25T16:35:45.262Z,65.22
2019-01-25T16:40:47.862Z,65.11
2019-01-25T16:45:50.354Z,65.28
2019-01-25T16:50:52.855Z,65.03
2019-01-25T16:55:55.326Z,65.09
2019-01-25T17:00:57.835Z,64.95
2019-01-25T17:06:00.312Z,64.99
2019-01-25T17:11:02.806Z,65.07
2019-01-25T17:16:05.275Z,64.89
2019-01-25T17:21:07.778Z,64.84
2019-01-25T17:26:10.300Z,64.84
2019-01-25T17:31:12.836Z,64.98
2019-01-25T17:36:15.326Z,64.92
2019-01-25T17:41:17.865Z,64.85
2019-01-25T17:46:20.351Z,64.80
2019-01-25T17:51:22.921Z,64.73
2019-01-25T17:56:25.401Z,64.61
2019-01-25T18:01:27.884Z,64.55
2019-01-25T18:06:30.394Z,64.49
2019-01-25T18:11:32.865Z,64.33
2019-01-25T18:16:35.332Z,64.38
2019-01-25T18:21:37.785Z,64.39
2019-01-25T18:26:40.254Z,64.32
2019-01-25T18:31:43.057Z,64.50
2019-01-25T18:36:45.533Z,64.16
2019-01-25T18:41:48.019Z,64.32
2019-01-25T18:46:50.503Z,64.23
2019-01-25T18:51:53.001Z,64.20
2019-01-25T18:56:55.476Z,64.11
2019-01-25T19:01:57.978Z,64.06
2019-01-25T19:07:00.438Z,63.96
2019-01-25T19:12:02.920Z,63.89
2019-01-25T19:17:05.381Z,63.67
2019-01-25T19:22:07.878Z,63.56
2019-01-25T19:27:12.109Z,63.65
2019-01-25T19:32:12.811Z,63.65
2019-01-25T19:37:15.306Z,63.58
2019-01-25T19:42:19.017Z,63.58
2019-01-25T19:47:21.498Z,63.17
2019-01-25T19:52:23.978Z,62.94
2019-01-25T19:57:26.467Z,63.22
2019-01-25T20:02:28.939Z,63.38
2019-01-25T20:07:31.402Z,63.20
2019-01-25T20:12:33.887Z,63.22
2019-01-25T20:17:36.379Z,63.08
2019-01-25T20:22:38.875Z,63.12
2019-01-25T20:27:41.315Z,63.19
2019-01-25T20:32:43.780Z,63.24
2019-01-25T20:37:46.259Z,63.34
2019-01-25T20:42:48.718Z,63.34
2019-01-25T20:47:51.199Z,63.45
2019-01-25T20:52:53.654Z,63.81
2019-01-25T20:57:56.125Z,63.95
2019-01-25T21:02:58.594Z,64.43
2019-01-25T21:08:01.044Z,64.96
2019-01-25T21:13:05.308Z,65.29
2019-01-25T21:18:05.975Z,65.74
2019-01-25T21:23:08.480Z,66.07
2019-01-25T21:28:10.987Z,66.57
2019-01-25T21:33:13.804Z,67.17
2019-01-25T21:38:16.270Z,67.69
2019-01-25T21:43:18.750Z,68.16
2019-01-25T21:48:21.232Z,68.29
2019-01-25T21:53:23.731Z,68.81
2019-01-25T21:58:26.220Z,69.33
2019-01-25T22:03:28.676Z,69.72
2019-01-25T22:08:31.141Z,70.22
2019-01-25T22:13:33.834Z,70.82
2019-01-25T22:18:36.295Z,71.30
2019-01-25T22:23:38.799Z,71.25
2019-01-25T22:28:41.271Z,71.52
2019-01-25T22:33:43.745Z,71.39
2019-01-25T22:38:46.394Z,71.10
2019-01-25T22:43:48.906Z,70.79
2019-01-25T22:48:51.372Z,70.49
2019-01-25T22:53:53.928Z,70.21
2019-01-25T22:58:56.369Z,69.81
2019-01-25T23:04:04.842Z,69.61
2019-01-25T23:09:16.359Z,69.31
2019-01-25T23:14:18.845Z,69.21
2019-01-25T23:19:21.294Z,69.34
2019-01-25T23:24:23.750Z,69.53
2019-01-25T23:29:26.211Z,70.12
2019-01-25T23:34:28.705Z,70.50
2019-01-25T23:39:31.201Z,70.81
2019-01-25T23:44:33.691Z,71.48
2019-01-25T23:49:36.163Z,72.23
2019-01-25T23:54:38.624Z,72.44
2019-01-25T23:59:41.095Z,72.89
